sensor_id;sensor_type;location;lat;lon;timestamp;pressure;altitude;pressure_sealevel;temperature;humidity
49216;BME280;45943;53.148;8.204;2023-07-20T00:00:51;101377.19;;;20.57;100.00
49216;BME280;45943;53.148;8.204;2023-07-20T00:03:19;101371.06;;;20.55;100.00
49216;BME280;45943;53.148;8.204;2023-07-20T00:05:49;101361.34;;;20.52;100.00
49216;BME280;45943;53.148;8.204;2023-07-20T00:08:15;101357.13;;;20.50;100.00
49216;BME280;45943;53.148;8.204;2023-07-20T00:10:42;101356.78;;;20.45;100.00
49216;BME280;45943;53.148;8.204;2023-07-20T00:13:11;101354.22;;;20.43;100.00
49216;BME280;45943;53.148;8.204;2023-07-20T00:15:37;101357.66;;;20.45;100.00
49216;BME280;45943;53.148;8.204;2023-07-20T00:18:03;101357.66;;;20.45;100.00
49216;BME280;45943;53.148;8.204;2023-07-20T00:20:30;101354.75;;;20.47;100.00
49216;BME280;45943;53.148;8.204;2023-07-20T00:22:56;101349.97;;;20.41;100.00
49216;BME280;45943;53.148;8.204;2023-07-20T00:25:23;101349.31;;;20.30;100.00
49216;BME280;45943;53.148;8.204;2023-07-20T00:27:50;101341.69;;;20.26;100.00
49216;BME280;45943;53.148;8.204;2023-07-20T00:30:16;101345.75;;;20.22;100.00
49216;BME280;45943;53.148;8.204;2023-07-20T00:32:44;101353.75;;;20.15;100.00
49216;BME280;45943;53.148;8.204;2023-07-20T00:35:10;101353.63;;;20.17;100.00
49216;BME280;45943;53.148;8.204;2023-07-20T00:37:37;101348.47;;;20.22;100.00
49216;BME280;45943;53.148;8.204;2023-07-20T00:40:04;101348.97;;;20.25;100.00
49216;BME280;45943;53.148;8.204;2023-07-20T00:42:33;101343.00;;;20.30;100.00
49216;BME280;45943;53.148;8.204;2023-07-20T00:44:59;101352.69;;;20.32;100.00
49216;BME280;45943;53.148;8.204;2023-07-20T00:47:26;101348.09;;;20.33;100.00
49216;BME280;45943;53.148;8.204;2023-07-20T00:49:53;101352.69;;;20.32;100.00
49216;BME280;45943;53.148;8.204;2023-07-20T00:52:20;101346.59;;;20.30;100.00
49216;BME280;45943;53.148;8.204;2023-07-20T00:54:48;101349.31;;;20.30;100.00
49216;BME280;45943;53.148;8.204;2023-07-20T00:57:15;101356.81;;;20.28;100.00
49216;BME280;45943;53.148;8.204;2023-07-20T00:59:44;101352.56;;;20.26;100.00
49216;BME280;45943;53.148;8.204;2023-07-20T01:02:10;101352.56;;;20.26;100.00
49216;BME280;45943;53.148;8.204;2023-07-20T01:04:36;101352.06;;;20.22;100.00
49216;BME280;45943;53.148;8.204;2023-07-20T01:07:05;101354.13;;;20.12;100.00
49216;BME280;45943;53.148;8.204;2023-07-20T01:09:56;101360.41;;;20.13;100.00
49216;BME280;45943;53.148;8.204;2023-07-20T01:12:40;101360.41;;;20.13;100.00
49216;BME280;45943;53.148;8.204;2023-07-20T01:15:08;101364.16;;;20.12;100.00
49216;BME280;45943;53.148;8.204;2023-07-20T01:17:35;101357.38;;;20.08;100.00
49216;BME280;45943;53.148;8.204;2023-07-20T01:20:01;101366.22;;;20.10;100.00
49216;BME280;45943;53.148;8.204;2023-07-20T01:25:21;101362.47;;;20.02;100.00
49216;BME280;45943;53.148;8.204;2023-07-20T01:30:50;101352.78;;;20.08;100.00
49216;BME280;45943;53.148;8.204;2023-07-20T01:33:21;101352.78;;;20.08;100.00
49216;BME280;45943;53.148;8.204;2023-07-20T01:35:53;101355.13;;;20.11;100.00
49216;BME280;45943;53.148;8.204;2023-07-20T01:38:22;101353.28;;;20.12;100.00
49216;BME280;45943;53.148;8.204;2023-07-20T01:40:50;101353.28;;;20.12;100.00
49216;BME280;45943;53.148;8.204;2023-07-20T01:43:17;101347.66;;;20.13;100.00
49216;BME280;45943;53.148;8.204;2023-07-20T01:45:43;101339.66;;;20.12;100.00
49216;BME280;45943;53.148;8.204;2023-07-20T01:48:09;101341.88;;;20.08;100.00
49216;BME280;45943;53.148;8.204;2023-07-20T01:50:36;101346.31;;;20.09;100.00
49216;BME280;45943;53.148;8.204;2023-07-20T01:53:02;101344.44;;;20.10;100.00
49216;BME280;45943;53.148;8.204;2023-07-20T01:55:28;101345.59;;;20.15;100.00
49216;BME280;45943;53.148;8.204;2023-07-20T01:57:54;101338.28;;;20.16;100.00
49216;BME280;45943;53.148;8.204;2023-07-20T02:00:20;101345.94;;;20.12;100.00
49216;BME280;45943;53.148;8.204;2023-07-20T02:02:49;101351.75;;;20.09;100.00
49216;BME280;45943;53.148;8.204;2023-07-20T02:05:16;101353.63;;;20.09;100.00
49216;BME280;45943;53.148;8.204;2023-07-20T02:07:42;101350.06;;;20.08;100.00
49216;BME280;45943;53.148;8.204;2023-07-20T02:10:09;101343.06;;;20.05;100.00
49216;BME280;45943;53.148;8.204;2023-07-20T02:12:35;101337.13;;;20.02;100.00
49216;BME280;45943;53.148;8.204;2023-07-20T02:15:01;101341.53;;;20.03;100.00
49216;BME280;45943;53.148;8.204;2023-07-20T02:17:28;101345.28;;;20.02;100.00
49216;BME280;45943;53.148;8.204;2023-07-20T02:19:56;101346.81;;;20.04;100.00
49216;BME280;45943;53.148;8.204;2023-07-20T02:22:23;101342.22;;;20.05;100.00
49216;BME280;45943;53.148;8.204;2023-07-20T02:24:49;101343.41;;;20.02;100.00
49216;BME280;45943;53.148;8.204;2023-07-20T02:27:16;101342.56;;;20.02;100.00
49216;BME280;45943;53.148;8.204;2023-07-20T02:29:42;101336.63;;;19.98;100.00
49216;BME280;45943;53.148;8.204;2023-07-20T02:32:08;101346.84;;;19.96;100.00
49216;BME280;45943;53.148;8.204;2023-07-20T02:34:37;101341.53;;;19.95;100.00
49216;BME280;45943;53.148;8.204;2023-07-20T02:37:04;101341.53;;;19.95;100.00
49216;BME280;45943;53.148;8.204;2023-07-20T02:39:30;101340.88;;;19.93;100.00
49216;BME280;45943;53.148;8.204;2023-07-20T02:41:56;101335.78;;;19.90;100.00
49216;BME280;45943;53.148;8.204;2023-07-20T02:44:22;101341.59;;;19.87;100.00
49216;BME280;45943;53.148;8.204;2023-07-20T02:46:48;101337.66;;;19.81;100.00
49216;BME280;45943;53.148;8.204;2023-07-20T02:49:17;101336.63;;;19.82;100.00
49216;BME280;45943;53.148;8.204;2023-07-20T02:51:43;101340.03;;;19.84;100.00
49216;BME280;45943;53.148;8.204;2023-07-20T02:54:09;101345.47;;;19.84;100.00
49216;BME280;45943;53.148;8.204;2023-07-20T02:56:35;101337.47;;;19.83;100.00
49216;BME280;45943;53.148;8.204;2023-07-20T02:59:02;101339.00;;;19.85;100.00
49216;BME280;45943;53.148;8.204;2023-07-20T03:01:28;101344.97;;;19.81;100.00
49216;BME280;45943;53.148;8.204;2023-07-20T03:03:57;101345.66;;;19.74;100.00
49216;BME280;45943;53.148;8.204;2023-07-20T03:06:23;101350.91;;;19.76;100.00
49216;BME280;45943;53.148;8.204;2023-07-20T03:08:50;101352.78;;;19.75;100.00
49216;BME280;45943;53.148;8.204;2023-07-20T03:11:18;101353.81;;;19.74;100.00
49216;BME280;45943;53.148;8.204;2023-07-20T03:13:46;101360.97;;;19.75;100.00
49216;BME280;45943;53.148;8.204;2023-07-20T03:16:13;101356.72;;;19.73;100.00
49216;BME280;45943;53.148;8.204;2023-07-20T03:18:41;101353.50;;;19.69;100.00
49216;BME280;45943;53.148;8.204;2023-07-20T03:21:07;101362.50;;;19.70;100.00
49216;BME280;45943;53.148;8.204;2023-07-20T03:23:34;101365.91;;;19.72;100.00
49216;BME280;45943;53.148;8.204;2023-07-20T03:26:00;101365.56;;;19.75;100.00
49216;BME280;45943;53.148;8.204;2023-07-20T03:28:26;101366.25;;;19.77;100.00
49216;BME280;45943;53.148;8.204;2023-07-20T03:30:56;101371.00;;;19.75;100.00
49216;BME280;45943;53.148;8.204;2023-07-20T03:33:24;101368.81;;;19.70;100.00
49216;BME280;45943;53.148;8.204;2023-07-20T03:35:51;101367.41;;;19.66;100.00
49216;BME280;45943;53.148;8.204;2023-07-20T03:38:17;101373.03;;;19.65;100.00
49216;BME280;45943;53.148;8.204;2023-07-20T03:43:19;101372.19;;;19.64;100.00
49216;BME280;45943;53.148;8.204;2023-07-20T03:45:46;101374.41;;;19.61;100.00
49216;BME280;45943;53.148;8.204;2023-07-20T03:48:15;101373.06;;;19.57;100.00
49216;BME280;45943;53.148;8.204;2023-07-20T03:50:41;101376.25;;;19.52;100.00
49216;BME280;45943;53.148;8.204;2023-07-20T03:53:07;101371.66;;;19.53;100.00
49216;BME280;45943;53.148;8.204;2023-07-20T03:55:33;101369.44;;;19.48;100.00
49216;BME280;45943;53.148;8.204;2023-07-20T03:57:59;101374.69;;;19.41;100.00
49216;BME280;45943;53.148;8.204;2023-07-20T04:00:25;101378.09;;;19.43;100.00
49216;BME280;45943;53.148;8.204;2023-07-20T04:02:51;101382.34;;;19.46;100.00
49216;BME280;45943;53.148;8.204;2023-07-20T04:05:17;101381.66;;;19.44;100.00
49216;BME280;45943;53.148;8.204;2023-07-20T04:07:43;101379.81;;;19.44;100.00
49216;BME280;45943;53.148;8.204;2023-07-20T04:10:09;101380.66;;;19.45;100.00
49216;BME280;45943;53.148;8.204;2023-07-20T04:12:35;101381.34;;;19.47;100.00
49216;BME280;45943;53.148;8.204;2023-07-20T04:15:01;101375.91;;;19.39;100.00
49216;BME280;45943;53.148;8.204;2023-07-20T04:17:29;101379.94;;;19.35;100.00
49216;BME280;45943;53.148;8.204;2023-07-20T04:19:55;101378.09;;;19.35;100.00
49216;BME280;45943;53.148;8.204;2023-07-20T04:22:21;101383.34;;;19.37;100.00
49216;BME280;45943;53.148;8.204;2023-07-20T04:24:47;101390.66;;;19.36;100.00
49216;BME280;45943;53.148;8.204;2023-07-20T04:27:13;101383.34;;;19.37;100.00
49216;BME280;45943;53.148;8.204;2023-07-20T04:29:39;101387.09;;;19.36;100.00
49216;BME280;45943;53.148;8.204;2023-07-20T04:32:06;101391.84;;;19.34;100.00
49216;BME280;45943;53.148;8.204;2023-07-20T04:34:32;101394.56;;;19.34;100.00
49216;BME280;45943;53.148;8.204;2023-07-20T04:36:58;101390.50;;;19.30;100.00
49216;BME280;45943;53.148;8.204;2023-07-20T04:39:24;101389.13;;;19.26;100.00
49216;BME280;45943;53.148;8.204;2023-07-20T04:41:50;101392.38;;;19.29;100.00
49216;BME280;45943;53.148;8.204;2023-07-20T04:44:16;101398.84;;;19.28;100.00
49216;BME280;45943;53.148;8.204;2023-07-20T04:46:42;101393.41;;;19.28;100.00
49216;BME280;45943;53.148;8.204;2023-07-20T04:49:08;101402.06;;;19.32;100.00
49216;BME280;45943;53.148;8.204;2023-07-20T04:51:34;101396.28;;;19.35;100.00
49216;BME280;45943;53.148;8.204;2023-07-20T04:54:00;101392.41;;;19.37;100.00
49216;BME280;45943;53.148;8.204;2023-07-20T04:56:26;101400.56;;;19.37;100.00
49216;BME280;45943;53.148;8.204;2023-07-20T04:58:52;101396.81;;;19.38;100.00
49216;BME280;45943;53.148;8.204;2023-07-20T05:01:18;101408.38;;;19.40;100.00
49216;BME280;45943;53.148;8.204;2023-07-20T05:03:44;101406.66;;;19.39;100.00
49216;BME280;45943;53.148;8.204;2023-07-20T05:06:10;101396.63;;;19.40;100.00
49216;BME280;45943;53.148;8.204;2023-07-20T05:08:36;101400.69;;;19.36;100.00
49216;BME280;45943;53.148;8.204;2023-07-20T05:11:02;101406.50;;;19.41;100.00
49216;BME280;45943;53.148;8.204;2023-07-20T05:13:28;101408.03;;;19.43;100.00
49216;BME280;45943;53.148;8.204;2023-07-20T05:15:54;101403.13;;;19.47;100.00
49216;BME280;45943;53.148;8.204;2023-07-20T05:18:20;101401.25;;;19.47;100.00
49216;BME280;45943;53.148;8.204;2023-07-20T05:20:46;101405.50;;;19.50;100.00
49216;BME280;45943;53.148;8.204;2023-07-20T05:23:13;101401.56;;;19.44;100.00
49216;BME280;45943;53.148;8.204;2023-07-20T05:25:39;101407.69;;;19.46;100.00
49216;BME280;45943;53.148;8.204;2023-07-20T05:28:05;101403.78;;;19.49;100.00
49216;BME280;45943;53.148;8.204;2023-07-20T05:30:31;101408.03;;;19.52;100.00
49216;BME280;45943;53.148;8.204;2023-07-20T05:32:57;101400.72;;;19.52;100.00
49216;BME280;45943;53.148;8.204;2023-07-20T05:35:25;101410.25;;;19.48;100.00
49216;BME280;45943;53.148;8.204;2023-07-20T05:37:51;101406.16;;;19.52;100.00
49216;BME280;45943;53.148;8.204;2023-07-20T05:40:18;101405.16;;;19.53;100.00
49216;BME280;45943;53.148;8.204;2023-07-20T05:42:45;101396.19;;;19.61;100.00
49216;BME280;45943;53.148;8.204;2023-07-20T05:45:17;101402.31;;;19.63;100.00
49216;BME280;45943;53.148;8.204;2023-07-20T05:47:43;101405.22;;;19.69;100.00
49216;BME280;45943;53.148;8.204;2023-07-20T05:50:10;101416.25;;;19.76;100.00
49216;BME280;45943;53.148;8.204;2023-07-20T05:52:36;101417.13;;;19.76;100.00
49216;BME280;45943;53.148;8.204;2023-07-20T05:55:04;101411.00;;;19.83;100.00
49216;BME280;45943;53.148;8.204;2023-07-20T05:57:31;101418.50;;;19.89;100.00
49216;BME280;45943;53.148;8.204;2023-07-20T05:59:57;101417.78;;;19.95;100.00
49216;BME280;45943;53.148;8.204;2023-07-20T06:02:23;101418.81;;;20.02;100.00
49216;BME280;45943;53.148;8.204;2023-07-20T06:04:49;101415.75;;;20.05;100.00
49216;BME280;45943;53.148;8.204;2023-07-20T06:07:15;101416.44;;;20.07;100.00
49216;BME280;45943;53.148;8.204;2023-07-20T06:09:41;101419.00;;;20.00;100.00
49216;BME280;45943;53.148;8.204;2023-07-20T06:12:07;101424.94;;;19.96;100.00
49216;BME280;45943;53.148;8.204;2023-07-20T06:14:34;101427.84;;;20.02;100.00
49216;BME280;45943;53.148;8.204;2023-07-20T06:17:00;101418.63;;;20.12;100.00
49216;BME280;45943;53.148;8.204;2023-07-20T06:19:26;101420.81;;;20.24;100.00
49216;BME280;45943;53.148;8.204;2023-07-20T06:21:52;101428.66;;;20.36;100.00
49216;BME280;45943;53.148;8.204;2023-07-20T06:24:18;101436.84;;;20.44;100.00
49216;BME280;45943;53.148;8.204;2023-07-20T06:26:44;101429.69;;;20.43;100.00
49216;BME280;45943;53.148;8.204;2023-07-20T06:29:10;101430.69;;;20.42;100.00
49216;BME280;45943;53.148;8.204;2023-07-20T06:31:36;101430.88;;;20.40;100.00
49216;BME280;45943;53.148;8.204;2023-07-20T06:34:03;101434.13;;;20.36;100.00
49216;BME280;45943;53.148;8.204;2023-07-20T06:36:29;101431.53;;;20.34;100.00
49216;BME280;45943;53.148;8.204;2023-07-20T06:38:55;101434.25;;;20.42;100.00
49216;BME280;45943;53.148;8.204;2023-07-20T06:41:22;101437.53;;;20.46;100.00
49216;BME280;45943;53.148;8.204;2023-07-20T06:43:48;101433.09;;;20.45;100.00
49216;BME280;45943;53.148;8.204;2023-07-20T06:46:14;101434.63;;;20.47;100.00
49216;BME280;45943;53.148;8.204;2023-07-20T06:48:40;101439.19;;;20.55;100.00
49216;BME280;45943;53.148;8.204;2023-07-20T06:51:06;101432.56;;;20.57;100.00
49216;BME280;45943;53.148;8.204;2023-07-20T06:53:32;101438.69;;;20.59;100.00
49216;BME280;45943;53.148;8.204;2023-07-20T06:55:58;101438.69;;;20.59;100.00
49216;BME280;45943;53.148;8.204;2023-07-20T06:58:24;101431.53;;;20.58;100.00
49216;BME280;45943;53.148;8.204;2023-07-20T07:00:50;101434.94;;;20.60;100.00
49216;BME280;45943;53.148;8.204;2023-07-20T07:03:16;101433.72;;;20.63;100.00
49216;BME280;45943;53.148;8.204;2023-07-20T07:05:43;101436.59;;;20.70;100.00
49216;BME280;45943;53.148;8.204;2023-07-20T07:08:10;101438.13;;;20.72;100.00
49216;BME280;45943;53.148;8.204;2023-07-20T07:10:37;101440.84;;;20.72;100.00
49216;BME280;45943;53.148;8.204;2023-07-20T07:13:03;101439.81;;;20.73;100.00
49216;BME280;45943;53.148;8.204;2023-07-20T07:15:29;101442.34;;;20.83;100.00
49216;BME280;45943;53.148;8.204;2023-07-20T07:17:55;101446.44;;;20.87;100.00
49216;BME280;45943;53.148;8.204;2023-07-20T07:20:22;101457.19;;;20.80;100.00
49216;BME280;45943;53.148;8.204;2023-07-20T07:22:50;101449.50;;;20.84;100.00
49216;BME280;45943;53.148;8.204;2023-07-20T07:25:16;101451.06;;;20.86;100.00
49216;BME280;45943;53.148;8.204;2023-07-20T07:27:42;101451.88;;;20.95;100.00
49216;BME280;45943;53.148;8.204;2023-07-20T07:30:08;101449.63;;;20.99;100.00
49216;BME280;45943;53.148;8.204;2023-07-20T07:32:35;101446.03;;;21.06;100.00
49216;BME280;45943;53.148;8.204;2023-07-20T07:35:01;101453.38;;;21.06;100.00
49216;BME280;45943;53.148;8.204;2023-07-20T07:37:27;101453.69;;;21.03;100.00
49216;BME280;45943;53.148;8.204;2023-07-20T07:39:53;101451.81;;;21.03;100.00
49216;BME280;45943;53.148;8.204;2023-07-20T07:42:19;101459.03;;;20.96;100.00
49216;BME280;45943;53.148;8.204;2023-07-20T07:44:45;101459.66;;;21.06;100.00
49216;BME280;45943;53.148;8.204;2023-07-20T07:47:11;101450.06;;;21.18;100.00
49216;BME280;45943;53.148;8.204;2023-07-20T07:49:36;101455.16;;;21.22;100.00
49216;BME280;45943;53.148;8.204;2023-07-20T07:52:03;101466.25;;;21.28;100.00
49216;BME280;45943;53.148;8.204;2023-07-20T07:54:29;101467.56;;;21.32;100.00
49216;BME280;45943;53.148;8.204;2023-07-20T07:56:55;101463.78;;;21.41;100.00
49216;BME280;45943;53.148;8.204;2023-07-20T07:59:21;101465.00;;;21.39;100.00
49216;BME280;45943;53.148;8.204;2023-07-20T08:01:48;101462.75;;;21.42;100.00
49216;BME280;45943;53.148;8.204;2023-07-20T08:04:14;101466.25;;;21.28;100.00
49216;BME280;45943;53.148;8.204;2023-07-20T08:06:40;101461.81;;;21.27;100.00
49216;BME280;45943;53.148;8.204;2023-07-20T08:09:06;101467.09;;;21.29;100.00
49216;BME280;45943;53.148;8.204;2023-07-20T08:11:32;101467.06;;;21.37;100.00
49216;BME280;45943;53.148;8.204;2023-07-20T08:13:59;101469.38;;;21.48;100.00
49216;BME280;45943;53.148;8.204;2023-07-20T08:16:26;101463.03;;;21.56;100.00
49216;BME280;45943;53.148;8.204;2023-07-20T08:18:52;101472.88;;;21.65;100.00
49216;BME280;45943;53.148;8.204;2023-07-20T08:21:18;101467.81;;;21.54;100.00
49216;BME280;45943;53.148;8.204;2023-07-20T08:23:44;101475.13;;;21.53;100.00
49216;BME280;45943;53.148;8.204;2023-07-20T08:26:10;101469.34;;;21.56;100.00
49216;BME280;45943;53.148;8.204;2023-07-20T08:28:36;101473.81;;;21.49;96.62
49216;BME280;45943;53.148;8.204;2023-07-20T08:31:03;101476.72;;;21.47;94.33
49216;BME280;45943;53.148;8.204;2023-07-20T08:33:31;101470.66;;;21.60;100.00
49216;BME280;45943;53.148;8.204;2023-07-20T08:36:00;101466.59;;;21.79;100.00
49216;BME280;45943;53.148;8.204;2023-07-20T08:38:27;101462.59;;;21.90;100.00
49216;BME280;45943;53.148;8.204;2023-07-20T08:40:53;101463.50;;;22.05;100.00
49216;BME280;45943;53.148;8.204;2023-07-20T08:43:22;101461.28;;;22.09;100.00
49216;BME280;45943;53.148;8.204;2023-07-20T08:45:52;101471.19;;;22.10;100.00
49216;BME280;45943;53.148;8.204;2023-07-20T08:48:20;101474.09;;;22.08;98.30
49216;BME280;45943;53.148;8.204;2023-07-20T08:50:48;101469.78;;;22.14;100.00
49216;BME280;45943;53.148;8.204;2023-07-20T08:53:16;101468.50;;;22.24;100.00
49216;BME280;45943;53.148;8.204;2023-07-20T08:55:42;101466.63;;;22.25;100.00
49216;BME280;45943;53.148;8.204;2023-07-20T08:58:12;101473.41;;;22.29;98.40
49216;BME280;45943;53.148;8.204;2023-07-20T09:00:38;101470.72;;;22.21;94.57
49216;BME280;45943;53.148;8.204;2023-07-20T09:03:05;101473.84;;;22.18;99.81
49216;BME280;45943;53.148;8.204;2023-07-20T09:05:31;101480.34;;;22.17;100.00
49216;BME280;45943;53.148;8.204;2023-07-20T09:07:57;101478.34;;;22.11;100.00
49216;BME280;45943;53.148;8.204;2023-07-20T09:10:23;101490.00;;;22.04;100.00
49216;BME280;45943;53.148;8.204;2023-07-20T09:12:49;101496.78;;;21.86;100.00
49216;BME280;45943;53.148;8.204;2023-07-20T09:15:16;101499.00;;;21.59;100.00
49216;BME280;45943;53.148;8.204;2023-07-20T09:17:46;101503.88;;;21.41;100.00
49216;BME280;45943;53.148;8.204;2023-07-20T09:20:14;101504.25;;;21.30;100.00
49216;BME280;45943;53.148;8.204;2023-07-20T09:22:41;101504.63;;;21.18;100.00
49216;BME280;45943;53.148;8.204;2023-07-20T09:25:14;101501.03;;;21.18;100.00
49216;BME280;45943;53.148;8.204;2023-07-20T09:27:42;101504.25;;;21.22;100.00
49216;BME280;45943;53.148;8.204;2023-07-20T09:30:14;101497.78;;;21.31;100.00
49216;BME280;45943;53.148;8.204;2023-07-20T09:32:45;101495.63;;;21.49;100.00
49216;BME280;45943;53.148;8.204;2023-07-20T09:35:14;101495.00;;;21.70;100.00
49216;BME280;45943;53.148;8.204;2023-07-20T09:37:45;101493.53;;;21.82;100.00
49216;BME280;45943;53.148;8.204;2023-07-20T09:40:18;101496.03;;;21.92;100.00
49216;BME280;45943;53.148;8.204;2023-07-20T09:42:44;101492.97;;;21.95;100.00
49216;BME280;45943;53.148;8.204;2023-07-20T09:45:11;101495.31;;;21.98;100.00
49216;BME280;45943;53.148;8.204;2023-07-20T09:47:37;101492.31;;;21.93;100.00
49216;BME280;45943;53.148;8.204;2023-07-20T09:50:04;101489.00;;;21.97;100.00
49216;BME280;45943;53.148;8.204;2023-07-20T09:52:39;101490.03;;;21.96;100.00
49216;BME280;45943;53.148;8.204;2023-07-20T09:55:10;101497.25;;;21.89;100.00
49216;BME280;45943;53.148;8.204;2023-07-20T09:57:37;101496.22;;;21.90;100.00
49216;BME280;45943;53.148;8.204;2023-07-20T10:00:05;101495.38;;;21.90;100.00
49216;BME280;45943;53.148;8.204;2023-07-20T10:02:45;101495.28;;;21.83;100.00
49216;BME280;45943;53.148;8.204;2023-07-20T10:05:13;101489.25;;;21.88;100.00
49216;BME280;45943;53.148;8.204;2023-07-20T10:07:43;101490.84;;;22.05;100.00
49216;BME280;45943;53.148;8.204;2023-07-20T10:10:11;101484.25;;;22.37;100.00
49216;BME280;45943;53.148;8.204;2023-07-20T10:12:37;101478.06;;;22.58;100.00
49216;BME280;45943;53.148;8.204;2023-07-20T10:17:38;101484.06;;;23.06;100.00
49216;BME280;45943;53.148;8.204;2023-07-20T10:20:16;101472.72;;;23.24;100.00
49216;BME280;45943;53.148;8.204;2023-07-20T10:22:45;101479.84;;;23.39;100.00
49216;BME280;45943;53.148;8.204;2023-07-20T10:25:15;101467.44;;;23.58;100.00
49216;BME280;45943;53.148;8.204;2023-07-20T10:27:43;101470.03;;;23.45;100.00
49216;BME280;45943;53.148;8.204;2023-07-20T10:30:10;101467.63;;;23.71;100.00
49216;BME280;45943;53.148;8.204;2023-07-20T10:32:37;101475.41;;;23.89;100.00
49216;BME280;45943;53.148;8.204;2023-07-20T10:35:23;101474.09;;;23.85;80.92
49216;BME280;45943;53.148;8.204;2023-07-20T10:37:53;101464.91;;;23.93;81.38
49216;BME280;45943;53.148;8.204;2023-07-20T10:40:33;101465.44;;;23.82;72.42
49216;BME280;45943;53.148;8.204;2023-07-20T10:43:00;101463.06;;;23.79;68.85
49216;BME280;45943;53.148;8.204;2023-07-20T10:45:50;101470.69;;;24.04;67.72
49216;BME280;45943;53.148;8.204;2023-07-20T10:48:21;101472.06;;;24.15;62.49
49216;BME280;45943;53.148;8.204;2023-07-20T10:51:10;101469.97;;;24.17;65.87
49216;BME280;45943;53.148;8.204;2023-07-20T10:53:41;101467.19;;;24.60;68.79
49216;BME280;45943;53.148;8.204;2023-07-20T10:56:13;101462.66;;;24.80;62.48
49216;BME280;45943;53.148;8.204;2023-07-20T10:58:41;101474.06;;;24.84;60.32
49216;BME280;45943;53.148;8.204;2023-07-20T11:01:07;101464.72;;;24.44;60.38
49216;BME280;45943;53.148;8.204;2023-07-20T11:03:37;101467.81;;;24.62;64.07
49216;BME280;45943;53.148;8.204;2023-07-20T11:09:13;101454.75;;;25.46;62.18
49216;BME280;45943;53.148;8.204;2023-07-20T11:11:41;101457.22;;;25.96;62.25
49216;BME280;45943;53.148;8.204;2023-07-20T11:14:08;101453.63;;;26.22;56.24
49216;BME280;45943;53.148;8.204;2023-07-20T11:16:43;101444.56;;;26.48;55.91
49216;BME280;45943;53.148;8.204;2023-07-20T11:19:14;101456.41;;;26.48;53.35
49216;BME280;45943;53.148;8.204;2023-07-20T11:21:44;101466.09;;;26.05;55.16
49216;BME280;45943;53.148;8.204;2023-07-20T11:24:12;101464.63;;;26.09;52.84
49216;BME280;45943;53.148;8.204;2023-07-20T11:26:39;101460.66;;;26.38;52.46
49216;BME280;45943;53.148;8.204;2023-07-20T11:29:06;101464.44;;;26.50;51.17
49216;BME280;45943;53.148;8.204;2023-07-20T11:31:34;101475.22;;;26.31;52.18
49216;BME280;45943;53.148;8.204;2023-07-20T11:34:01;101472.66;;;25.90;55.79
49216;BME280;45943;53.148;8.204;2023-07-20T11:36:27;101462.47;;;25.84;59.44
49216;BME280;45943;53.148;8.204;2023-07-20T11:38:53;101475.75;;;25.67;61.44
49216;BME280;45943;53.148;8.204;2023-07-20T11:41:19;101473.13;;;25.39;61.76
49216;BME280;45943;53.148;8.204;2023-07-20T11:43:47;101470.66;;;25.10;62.34
49216;BME280;45943;53.148;8.204;2023-07-20T11:46:13;101461.84;;;24.86;64.05
49216;BME280;45943;53.148;8.204;2023-07-20T11:48:39;101462.38;;;24.69;65.48
49216;BME280;45943;53.148;8.204;2023-07-20T11:51:05;101469.22;;;24.51;65.35
49216;BME280;45943;53.148;8.204;2023-07-20T11:53:31;101470.28;;;24.29;66.20
49216;BME280;45943;53.148;8.204;2023-07-20T11:55:58;101480.16;;;24.23;69.02
49216;BME280;45943;53.148;8.204;2023-07-20T11:58:27;101480.22;;;24.09;71.14
49216;BME280;45943;53.148;8.204;2023-07-20T12:00:55;101481.41;;;23.99;70.49
49216;BME280;45943;53.148;8.204;2023-07-20T12:03:21;101487.47;;;24.16;74.50
49216;BME280;45943;53.148;8.204;2023-07-20T12:05:47;101476.13;;;24.75;72.99
49216;BME280;45943;53.148;8.204;2023-07-20T12:08:15;101473.75;;;25.41;68.70
49216;BME280;45943;53.148;8.204;2023-07-20T12:10:41;101477.50;;;25.82;57.09
49216;BME280;45943;53.148;8.204;2023-07-20T12:13:09;101470.13;;;26.22;56.65
49216;BME280;45943;53.148;8.204;2023-07-20T12:15:37;101463.59;;;26.29;53.37
49216;BME280;45943;53.148;8.204;2023-07-20T12:18:04;101478.00;;;26.58;55.06
49216;BME280;45943;53.148;8.204;2023-07-20T12:20:35;101467.78;;;26.78;51.25
49216;BME280;45943;53.148;8.204;2023-07-20T12:23:08;101459.69;;;27.03;54.13
49216;BME280;45943;53.148;8.204;2023-07-20T12:25:44;101467.00;;;27.36;51.20
49216;BME280;45943;53.148;8.204;2023-07-20T12:28:12;101469.75;;;27.36;48.94
49216;BME280;45943;53.148;8.204;2023-07-20T12:30:42;101472.19;;;27.51;51.91
49216;BME280;45943;53.148;8.204;2023-07-20T12:33:10;101466.97;;;27.81;50.45
49216;BME280;45943;53.148;8.204;2023-07-20T12:35:37;101455.78;;;28.00;47.20
49216;BME280;45943;53.148;8.204;2023-07-20T12:38:03;101467.06;;;27.99;47.07
49216;BME280;45943;53.148;8.204;2023-07-20T12:40:30;101458.03;;;27.85;45.34
49216;BME280;45943;53.148;8.204;2023-07-20T12:42:56;101455.88;;;27.94;47.84
49216;BME280;45943;53.148;8.204;2023-07-20T12:45:23;101458.69;;;28.12;48.24
49216;BME280;45943;53.148;8.204;2023-07-20T12:47:49;101456.09;;;28.17;47.73
49216;BME280;45943;53.148;8.204;2023-07-20T12:50:15;101441.41;;;28.23;46.87
49216;BME280;45943;53.148;8.204;2023-07-20T12:52:41;101435.75;;;27.87;49.39
49216;BME280;45943;53.148;8.204;2023-07-20T12:55:07;101437.78;;;27.73;48.17
49216;BME280;45943;53.148;8.204;2023-07-20T12:57:34;101444.41;;;27.90;45.65